sensor_id;sensor_type;location;lat;lon;timestamp;P1;durP1;ratioP1;P2;durP2;ratioP2
8139;SDS011;4111;50.972;7.072;2022-11-20T00:01:17;11.93;;;10.67;;
8139;SDS011;4111;50.972;7.072;2022-11-20T00:03:46;13.67;;;11.10;;
8139;SDS011;4111;50.972;7.072;2022-11-20T00:06:14;14.17;;;11.43;;
8139;SDS011;4111;50.972;7.072;2022-11-20T00:08:43;12.60;;;11.00;;
8139;SDS011;4111;50.972;7.072;2022-11-20T00:11:10;12.50;;;11.07;;
8139;SDS011;4111;50.972;7.072;2022-11-20T00:13:42;12.77;;;11.17;;
8139;SDS011;4111;50.972;7.072;2022-11-20T00:16:10;12.07;;;10.10;;
8139;SDS011;4111;50.972;7.072;2022-11-20T00:18:40;12.63;;;11.33;;
8139;SDS011;4111;50.972;7.072;2022-11-20T00:21:15;11.20;;;10.00;;
8139;SDS011;4111;50.972;7.072;2022-11-20T00:23:44;12.10;;;10.07;;
8139;SDS011;4111;50.972;7.072;2022-11-20T00:26:12;11.90;;;9.83;;
8139;SDS011;4111;50.972;7.072;2022-11-20T00:28:40;11.93;;;10.07;;
8139;SDS011;4111;50.972;7.072;2022-11-20T00:31:09;11.67;;;10.43;;
8139;SDS011;4111;50.972;7.072;2022-11-20T00:33:39;12.10;;;10.23;;
8139;SDS011;4111;50.972;7.072;2022-11-20T00:36:06;13.40;;;10.70;;
8139;SDS011;4111;50.972;7.072;2022-11-20T00:38:34;13.43;;;11.50;;
8139;SDS011;4111;50.972;7.072;2022-11-20T00:41:02;12.70;;;10.50;;
8139;SDS011;4111;50.972;7.072;2022-11-20T00:43:30;13.40;;;11.67;;
8139;SDS011;4111;50.972;7.072;2022-11-20T00:46:02;12.37;;;10.00;;
8139;SDS011;4111;50.972;7.072;2022-11-20T00:48:33;11.80;;;10.60;;
8139;SDS011;4111;50.972;7.072;2022-11-20T00:50:59;11.50;;;10.30;;
8139;SDS011;4111;50.972;7.072;2022-11-20T00:53:26;12.90;;;10.63;;
8139;SDS011;4111;50.972;7.072;2022-11-20T00:55:57;12.37;;;10.53;;
8139;SDS011;4111;50.972;7.072;2022-11-20T00:58:24;12.20;;;9.70;;
8139;SDS011;4111;50.972;7.072;2022-11-20T01:00:59;10.77;;;9.70;;
8139;SDS011;4111;50.972;7.072;2022-11-20T01:03:27;11.70;;;9.93;;
8139;SDS011;4111;50.972;7.072;2022-11-20T01:05:53;12.30;;;10.40;;
8139;SDS011;4111;50.972;7.072;2022-11-20T01:08:20;11.13;;;10.07;;
8139;SDS011;4111;50.972;7.072;2022-11-20T01:10:46;11.53;;;10.37;;
8139;SDS011;4111;50.972;7.072;2022-11-20T01:13:13;12.20;;;11.00;;
8139;SDS011;4111;50.972;7.072;2022-11-20T01:16:20;12.77;;;11.20;;
8139;SDS011;4111;50.972;7.072;2022-11-20T01:18:50;10.90;;;9.80;;
8139;SDS011;4111;50.972;7.072;2022-11-20T01:21:19;12.50;;;10.13;;
8139;SDS011;4111;50.972;7.072;2022-11-20T01:23:48;11.60;;;10.27;;
8139;SDS011;4111;50.972;7.072;2022-11-20T01:26:17;11.30;;;10.20;;
8139;SDS011;4111;50.972;7.072;2022-11-20T01:28:45;10.20;;;9.13;;
8139;SDS011;4111;50.972;7.072;2022-11-20T01:33:40;11.10;;;9.90;;
8139;SDS011;4111;50.972;7.072;2022-11-20T01:36:07;11.23;;;10.07;;
8139;SDS011;4111;50.972;7.072;2022-11-20T01:38:35;11.67;;;9.77;;
8139;SDS011;4111;50.972;7.072;2022-11-20T01:41:01;11.50;;;10.30;;
8139;SDS011;4111;50.972;7.072;2022-11-20T01:43:28;12.77;;;9.13;;
8139;SDS011;4111;50.972;7.072;2022-11-20T01:48:54;10.93;;;9.83;;
8139;SDS011;4111;50.972;7.072;2022-11-20T01:54:00;12.33;;;10.30;;
8139;SDS011;4111;50.972;7.072;2022-11-20T01:56:31;11.10;;;10.00;;
8139;SDS011;4111;50.972;7.072;2022-11-20T01:59:01;11.10;;;9.93;;
8139;SDS011;4111;50.972;7.072;2022-11-20T02:01:32;11.70;;;10.47;;
8139;SDS011;4111;50.972;7.072;2022-11-20T02:03:59;10.47;;;9.13;;
8139;SDS011;4111;50.972;7.072;2022-11-20T02:06:31;10.57;;;9.47;;
8139;SDS011;4111;50.972;7.072;2022-11-20T02:09:02;10.70;;;9.50;;
8139;SDS011;4111;50.972;7.072;2022-11-20T02:11:29;11.20;;;9.50;;
8139;SDS011;4111;50.972;7.072;2022-11-20T02:13:56;10.80;;;9.70;;
8139;SDS011;4111;50.972;7.072;2022-11-20T02:16:25;10.97;;;9.80;;
8139;SDS011;4111;50.972;7.072;2022-11-20T02:18:53;11.47;;;9.13;;
8139;SDS011;4111;50.972;7.072;2022-11-20T02:21:23;10.63;;;9.53;;
8139;SDS011;4111;50.972;7.072;2022-11-20T02:24:04;10.67;;;9.47;;
8139;SDS011;4111;50.972;7.072;2022-11-20T02:26:37;11.90;;;9.87;;
8139;SDS011;4111;50.972;7.072;2022-11-20T02:29:08;10.93;;;9.83;;
8139;SDS011;4111;50.972;7.072;2022-11-20T02:31:36;12.93;;;10.20;;
8139;SDS011;4111;50.972;7.072;2022-11-20T02:34:07;11.70;;;10.07;;
8139;SDS011;4111;50.972;7.072;2022-11-20T02:36:34;11.53;;;10.20;;
8139;SDS011;4111;50.972;7.072;2022-11-20T02:39:03;10.60;;;9.50;;
8139;SDS011;4111;50.972;7.072;2022-11-20T02:41:31;11.07;;;9.63;;
8139;SDS011;4111;50.972;7.072;2022-11-20T02:44:02;11.07;;;9.93;;
8139;SDS011;4111;50.972;7.072;2022-11-20T02:46:29;12.03;;;10.20;;
8139;SDS011;4111;50.972;7.072;2022-11-20T02:48:57;10.97;;;9.37;;
8139;SDS011;4111;50.972;7.072;2022-11-20T02:51:23;11.17;;;9.77;;
8139;SDS011;4111;50.972;7.072;2022-11-20T02:53:50;9.63;;;8.70;;
8139;SDS011;4111;50.972;7.072;2022-11-20T02:56:17;11.03;;;9.70;;
8139;SDS011;4111;50.972;7.072;2022-11-20T02:58:43;13.40;;;9.60;;
8139;SDS011;4111;50.972;7.072;2022-11-20T03:01:10;10.53;;;9.47;;
8139;SDS011;4111;50.972;7.072;2022-11-20T03:03:36;10.73;;;8.97;;
8139;SDS011;4111;50.972;7.072;2022-11-20T03:06:02;12.20;;;10.47;;
8139;SDS011;4111;50.972;7.072;2022-11-20T03:08:29;11.43;;;10.27;;
8139;SDS011;4111;50.972;7.072;2022-11-20T03:10:55;10.90;;;9.70;;
8139;SDS011;4111;50.972;7.072;2022-11-20T03:13:22;10.60;;;9.50;;
8139;SDS011;4111;50.972;7.072;2022-11-20T03:15:48;11.73;;;10.33;;
8139;SDS011;4111;50.972;7.072;2022-11-20T03:18:15;12.03;;;9.80;;
8139;SDS011;4111;50.972;7.072;2022-11-20T03:20:41;10.93;;;9.83;;
8139;SDS011;4111;50.972;7.072;2022-11-20T03:23:08;11.20;;;10.03;;
8139;SDS011;4111;50.972;7.072;2022-11-20T03:25:34;11.43;;;9.87;;
8139;SDS011;4111;50.972;7.072;2022-11-20T03:28:01;10.50;;;9.47;;
8139;SDS011;4111;50.972;7.072;2022-11-20T03:30:28;11.73;;;9.67;;
8139;SDS011;4111;50.972;7.072;2022-11-20T03:32:56;11.00;;;9.67;;
8139;SDS011;4111;50.972;7.072;2022-11-20T03:35:22;11.73;;;9.87;;
8139;SDS011;4111;50.972;7.072;2022-11-20T03:37:49;11.33;;;10.13;;
8139;SDS011;4111;50.972;7.072;2022-11-20T03:40:15;11.50;;;9.83;;
8139;SDS011;4111;50.972;7.072;2022-11-20T03:42:41;11.83;;;10.47;;
8139;SDS011;4111;50.972;7.072;2022-11-20T03:45:11;11.27;;;10.03;;
8139;SDS011;4111;50.972;7.072;2022-11-20T03:47:39;10.70;;;9.60;;
8139;SDS011;4111;50.972;7.072;2022-11-20T03:50:06;12.97;;;9.80;;
8139;SDS011;4111;50.972;7.072;2022-11-20T03:52:33;11.27;;;10.07;;
8139;SDS011;4111;50.972;7.072;2022-11-20T03:54:59;10.77;;;9.63;;
8139;SDS011;4111;50.972;7.072;2022-11-20T03:57:25;11.57;;;9.80;;
8139;SDS011;4111;50.972;7.072;2022-11-20T03:59:52;12.17;;;10.23;;
8139;SDS011;4111;50.972;7.072;2022-11-20T04:02:18;11.23;;;9.93;;
8139;SDS011;4111;50.972;7.072;2022-11-20T04:04:45;13.03;;;10.37;;
8139;SDS011;4111;50.972;7.072;2022-11-20T04:07:11;11.43;;;10.20;;
8139;SDS011;4111;50.972;7.072;2022-11-20T04:09:38;11.83;;;10.23;;
8139;SDS011;4111;50.972;7.072;2022-11-20T04:12:04;11.63;;;10.40;;
8139;SDS011;4111;50.972;7.072;2022-11-20T04:14:31;12.93;;;10.80;;
8139;SDS011;4111;50.972;7.072;2022-11-20T04:16:57;12.60;;;10.67;;
8139;SDS011;4111;50.972;7.072;2022-11-20T04:19:23;12.50;;;11.07;;
8139;SDS011;4111;50.972;7.072;2022-11-20T04:21:50;11.50;;;10.30;;
8139;SDS011;4111;50.972;7.072;2022-11-20T04:24:16;11.67;;;9.60;;
8139;SDS011;4111;50.972;7.072;2022-11-20T04:26:43;11.17;;;9.80;;
8139;SDS011;4111;50.972;7.072;2022-11-20T04:29:10;11.50;;;10.13;;
8139;SDS011;4111;50.972;7.072;2022-11-20T04:31:37;12.83;;;10.63;;
8139;SDS011;4111;50.972;7.072;2022-11-20T04:34:05;12.43;;;10.83;;
8139;SDS011;4111;50.972;7.072;2022-11-20T04:36:32;11.97;;;10.77;;
8139;SDS011;4111;50.972;7.072;2022-11-20T04:39:00;12.07;;;10.37;;
8139;SDS011;4111;50.972;7.072;2022-11-20T04:41:32;11.33;;;9.60;;
8139;SDS011;4111;50.972;7.072;2022-11-20T04:44:01;13.47;;;10.97;;
8139;SDS011;4111;50.972;7.072;2022-11-20T04:46:30;13.97;;;11.10;;
8139;SDS011;4111;50.972;7.072;2022-11-20T04:48:58;11.97;;;10.60;;
8139;SDS011;4111;50.972;7.072;2022-11-20T04:51:25;13.40;;;10.80;;
8139;SDS011;4111;50.972;7.072;2022-11-20T04:53:52;11.87;;;10.57;;
8139;SDS011;4111;50.972;7.072;2022-11-20T04:56:19;12.20;;;10.80;;
8139;SDS011;4111;50.972;7.072;2022-11-20T04:58:45;11.30;;;10.10;;
8139;SDS011;4111;50.972;7.072;2022-11-20T05:01:12;12.63;;;11.07;;
8139;SDS011;4111;50.972;7.072;2022-11-20T05:03:41;13.20;;;11.03;;
8139;SDS011;4111;50.972;7.072;2022-11-20T05:06:09;14.83;;;11.37;;
8139;SDS011;4111;50.972;7.072;2022-11-20T05:08:38;13.40;;;10.67;;
8139;SDS011;4111;50.972;7.072;2022-11-20T05:11:15;12.93;;;10.57;;
8139;SDS011;4111;50.972;7.072;2022-11-20T05:13:43;12.93;;;11.60;;
8139;SDS011;4111;50.972;7.072;2022-11-20T05:16:15;12.23;;;10.57;;
8139;SDS011;4111;50.972;7.072;2022-11-20T05:18:43;12.47;;;11.13;;
8139;SDS011;4111;50.972;7.072;2022-11-20T05:21:10;12.60;;;11.27;;
8139;SDS011;4111;50.972;7.072;2022-11-20T05:23:37;13.07;;;11.37;;
8139;SDS011;4111;50.972;7.072;2022-11-20T05:26:06;13.70;;;12.07;;
8139;SDS011;4111;50.972;7.072;2022-11-20T05:28:33;13.23;;;11.83;;
8139;SDS011;4111;50.972;7.072;2022-11-20T05:31:43;14.17;;;12.00;;
8139;SDS011;4111;50.972;7.072;2022-11-20T05:33:53;16.83;;;12.50;;
8139;SDS011;4111;50.972;7.072;2022-11-20T05:36:20;14.70;;;12.17;;
8139;SDS011;4111;50.972;7.072;2022-11-20T05:38:47;13.93;;;12.53;;
8139;SDS011;4111;50.972;7.072;2022-11-20T05:41:17;14.27;;;12.40;;
8139;SDS011;4111;50.972;7.072;2022-11-20T05:43:46;13.73;;;11.63;;
8139;SDS011;4111;50.972;7.072;2022-11-20T05:46:14;13.53;;;12.13;;
8139;SDS011;4111;50.972;7.072;2022-11-20T05:48:43;13.73;;;11.70;;
8139;SDS011;4111;50.972;7.072;2022-11-20T05:51:11;14.00;;;12.43;;
8139;SDS011;4111;50.972;7.072;2022-11-20T05:53:39;14.40;;;12.13;;
8139;SDS011;4111;50.972;7.072;2022-11-20T05:56:14;15.07;;;12.07;;
8139;SDS011;4111;50.972;7.072;2022-11-20T05:58:42;15.00;;;12.03;;
8139;SDS011;4111;50.972;7.072;2022-11-20T06:01:13;15.63;;;12.80;;
8139;SDS011;4111;50.972;7.072;2022-11-20T06:03:42;13.53;;;11.53;;
8139;SDS011;4111;50.972;7.072;2022-11-20T06:06:11;12.33;;;11.03;;
8139;SDS011;4111;50.972;7.072;2022-11-20T06:08:38;15.67;;;11.37;;
8139;SDS011;4111;50.972;7.072;2022-11-20T06:11:05;13.10;;;11.70;;
8139;SDS011;4111;50.972;7.072;2022-11-20T06:13:33;13.00;;;11.70;;
8139;SDS011;4111;50.972;7.072;2022-11-20T06:16:06;14.17;;;12.03;;
8139;SDS011;4111;50.972;7.072;2022-11-20T06:18:33;15.80;;;14.10;;
8139;SDS011;4111;50.972;7.072;2022-11-20T06:21:00;16.93;;;13.63;;
8139;SDS011;4111;50.972;7.072;2022-11-20T06:23:31;16.33;;;13.10;;
8139;SDS011;4111;50.972;7.072;2022-11-20T06:26:01;15.27;;;13.67;;
8139;SDS011;4111;50.972;7.072;2022-11-20T06:28:38;15.93;;;14.23;;
8139;SDS011;4111;50.972;7.072;2022-11-20T06:31:05;15.73;;;13.73;;
8139;SDS011;4111;50.972;7.072;2022-11-20T06:33:32;14.73;;;12.47;;
8139;SDS011;4111;50.972;7.072;2022-11-20T06:35:59;14.93;;;12.07;;
8139;SDS011;4111;50.972;7.072;2022-11-20T06:38:35;14.47;;;12.07;;
8139;SDS011;4111;50.972;7.072;2022-11-20T06:41:02;14.70;;;12.30;;
8139;SDS011;4111;50.972;7.072;2022-11-20T06:43:30;14.73;;;12.10;;
8139;SDS011;4111;50.972;7.072;2022-11-20T06:45:57;13.97;;;11.30;;
8139;SDS011;4111;50.972;7.072;2022-11-20T06:48:25;13.03;;;11.73;;
8139;SDS011;4111;50.972;7.072;2022-11-20T06:50:53;13.40;;;11.90;;
8139;SDS011;4111;50.972;7.072;2022-11-20T06:53:20;14.27;;;12.10;;
8139;SDS011;4111;50.972;7.072;2022-11-20T06:55:48;14.20;;;12.00;;
8139;SDS011;4111;50.972;7.072;2022-11-20T06:58:15;14.20;;;12.23;;
8139;SDS011;4111;50.972;7.072;2022-11-20T07:00:42;14.23;;;11.97;;
8139;SDS011;4111;50.972;7.072;2022-11-20T07:03:10;13.77;;;11.97;;
8139;SDS011;4111;50.972;7.072;2022-11-20T07:05:38;15.50;;;12.27;;
8139;SDS011;4111;50.972;7.072;2022-11-20T07:08:04;12.83;;;11.50;;
8139;SDS011;4111;50.972;7.072;2022-11-20T07:10:31;14.67;;;12.20;;
8139;SDS011;4111;50.972;7.072;2022-11-20T07:12:58;13.30;;;11.93;;
8139;SDS011;4111;50.972;7.072;2022-11-20T07:15:25;14.37;;;11.70;;
8139;SDS011;4111;50.972;7.072;2022-11-20T07:17:51;15.67;;;13.57;;
8139;SDS011;4111;50.972;7.072;2022-11-20T07:20:18;15.57;;;13.20;;
8139;SDS011;4111;50.972;7.072;2022-11-20T07:22:45;14.13;;;12.63;;
8139;SDS011;4111;50.972;7.072;2022-11-20T07:25:11;16.37;;;13.23;;
8139;SDS011;4111;50.972;7.072;2022-11-20T07:27:38;14.53;;;12.07;;
8139;SDS011;4111;50.972;7.072;2022-11-20T07:30:04;13.73;;;12.33;;
8139;SDS011;4111;50.972;7.072;2022-11-20T07:32:31;15.00;;;12.73;;
8139;SDS011;4111;50.972;7.072;2022-11-20T07:34:57;13.77;;;11.70;;
8139;SDS011;4111;50.972;7.072;2022-11-20T07:37:24;15.63;;;14.03;;
8139;SDS011;4111;50.972;7.072;2022-11-20T07:39:50;16.27;;;12.03;;
8139;SDS011;4111;50.972;7.072;2022-11-20T07:42:17;19.20;;;13.57;;
8139;SDS011;4111;50.972;7.072;2022-11-20T07:44:43;16.87;;;13.80;;
8139;SDS011;4111;50.972;7.072;2022-11-20T07:47:09;15.63;;;12.33;;
8139;SDS011;4111;50.972;7.072;2022-11-20T07:49:36;15.60;;;13.00;;
8139;SDS011;4111;50.972;7.072;2022-11-20T07:52:02;14.30;;;12.27;;
8139;SDS011;4111;50.972;7.072;2022-11-20T07:54:30;14.83;;;12.60;;
8139;SDS011;4111;50.972;7.072;2022-11-20T07:56:57;17.07;;;13.23;;
8139;SDS011;4111;50.972;7.072;2022-11-20T07:59:23;15.30;;;13.00;;
8139;SDS011;4111;50.972;7.072;2022-11-20T08:01:49;13.93;;;11.97;;
8139;SDS011;4111;50.972;7.072;2022-11-20T08:04:16;17.20;;;13.57;;
8139;SDS011;4111;50.972;7.072;2022-11-20T08:06:42;15.97;;;12.63;;
8139;SDS011;4111;50.972;7.072;2022-11-20T08:09:09;16.97;;;13.30;;
8139;SDS011;4111;50.972;7.072;2022-11-20T08:11:35;17.00;;;13.87;;
8139;SDS011;4111;50.972;7.072;2022-11-20T08:14:20;16.47;;;13.83;;
8139;SDS011;4111;50.972;7.072;2022-11-20T08:16:47;16.00;;;12.77;;
8139;SDS011;4111;50.972;7.072;2022-11-20T08:19:15;15.47;;;13.57;;
8139;SDS011;4111;50.972;7.072;2022-11-20T08:21:44;15.27;;;13.63;;
8139;SDS011;4111;50.972;7.072;2022-11-20T08:24:11;14.50;;;12.40;;
8139;SDS011;4111;50.972;7.072;2022-11-20T08:26:38;14.37;;;12.40;;
8139;SDS011;4111;50.972;7.072;2022-11-20T08:29:05;16.83;;;12.67;;
8139;SDS011;4111;50.972;7.072;2022-11-20T08:31:32;14.77;;;12.70;;
8139;SDS011;4111;50.972;7.072;2022-11-20T08:33:59;15.00;;;13.37;;
8139;SDS011;4111;50.972;7.072;2022-11-20T08:36:25;17.97;;;13.37;;
8139;SDS011;4111;50.972;7.072;2022-11-20T08:38:52;15.60;;;13.50;;
8139;SDS011;4111;50.972;7.072;2022-11-20T08:41:21;18.40;;;13.47;;
8139;SDS011;4111;50.972;7.072;2022-11-20T08:43:58;15.63;;;13.70;;
8139;SDS011;4111;50.972;7.072;2022-11-20T08:46:26;16.57;;;13.50;;
8139;SDS011;4111;50.972;7.072;2022-11-20T08:49:01;18.00;;;14.00;;
8139;SDS011;4111;50.972;7.072;2022-11-20T08:51:27;17.30;;;14.23;;
8139;SDS011;4111;50.972;7.072;2022-11-20T08:53:54;17.87;;;14.50;;
8139;SDS011;4111;50.972;7.072;2022-11-20T08:56:21;17.73;;;14.60;;
8139;SDS011;4111;50.972;7.072;2022-11-20T08:58:47;17.60;;;15.10;;
8139;SDS011;4111;50.972;7.072;2022-11-20T09:01:33;16.07;;;13.53;;
8139;SDS011;4111;50.972;7.072;2022-11-20T09:04:00;18.47;;;14.17;;
8139;SDS011;4111;50.972;7.072;2022-11-20T09:06:26;18.17;;;14.53;;
8139;SDS011;4111;50.972;7.072;2022-11-20T09:08:53;19.90;;;15.00;;
8139;SDS011;4111;50.972;7.072;2022-11-20T09:11:20;17.73;;;15.00;;
8139;SDS011;4111;50.972;7.072;2022-11-20T09:13:47;17.83;;;14.33;;
8139;SDS011;4111;50.972;7.072;2022-11-20T09:16:14;17.30;;;14.30;;
8139;SDS011;4111;50.972;7.072;2022-11-20T09:18:40;19.07;;;15.63;;
8139;SDS011;4111;50.972;7.072;2022-11-20T09:21:11;18.53;;;14.97;;
8139;SDS011;4111;50.972;7.072;2022-11-20T09:23:39;18.10;;;14.90;;
8139;SDS011;4111;50.972;7.072;2022-11-20T09:26:10;19.50;;;15.57;;
8139;SDS011;4111;50.972;7.072;2022-11-20T09:28:38;18.03;;;14.40;;
8139;SDS011;4111;50.972;7.072;2022-11-20T09:31:06;19.00;;;16.67;;
8139;SDS011;4111;50.972;7.072;2022-11-20T09:33:33;18.50;;;14.90;;
8139;SDS011;4111;50.972;7.072;2022-11-20T09:36:00;17.10;;;14.67;;
8139;SDS011;4111;50.972;7.072;2022-11-20T09:38:27;16.50;;;14.70;;
8139;SDS011;4111;50.972;7.072;2022-11-20T09:40:57;17.10;;;14.33;;
8139;SDS011;4111;50.972;7.072;2022-11-20T09:46:29;19.63;;;15.03;;
8139;SDS011;4111;50.972;7.072;2022-11-20T09:49:22;16.90;;;14.20;;
8139;SDS011;4111;50.972;7.072;2022-11-20T09:51:58;15.47;;;13.50;;
8139;SDS011;4111;50.972;7.072;2022-11-20T09:54:28;15.20;;;12.97;;
8139;SDS011;4111;50.972;7.072;2022-11-20T09:57:02;17.37;;;12.03;;
8139;SDS011;4111;50.972;7.072;2022-11-20T09:59:42;12.37;;;10.90;;
8139;SDS011;4111;50.972;7.072;2022-11-20T10:05:21;12.80;;;11.00;;
8139;SDS011;4111;50.972;7.072;2022-11-20T10:10:44;11.37;;;10.17;;
8139;SDS011;4111;50.972;7.072;2022-11-20T10:13:26;14.67;;;11.60;;
8139;SDS011;4111;50.972;7.072;2022-11-20T10:16:19;12.57;;;10.73;;
8139;SDS011;4111;50.972;7.072;2022-11-20T10:30:01;14.03;;;11.53;;
8139;SDS011;4111;50.972;7.072;2022-11-20T10:32:32;14.40;;;12.13;;
8139;SDS011;4111;50.972;7.072;2022-11-20T10:37:49;15.07;;;12.37;;
8139;SDS011;4111;50.972;7.072;2022-11-20T10:43:03;16.03;;;13.70;;
8139;SDS011;4111;50.972;7.072;2022-11-20T10:51:01;18.63;;;14.47;;
8139;SDS011;4111;50.972;7.072;2022-11-20T10:53:40;20.93;;;14.40;;
8139;SDS011;4111;50.972;7.072;2022-11-20T10:56:24;16.60;;;13.27;;
8139;SDS011;4111;50.972;7.072;2022-11-20T11:01:46;15.63;;;12.97;;
8139;SDS011;4111;50.972;7.072;2022-11-20T11:04:25;20.33;;;15.87;;
8139;SDS011;4111;50.972;7.072;2022-11-20T11:06:57;18.13;;;14.03;;
8139;SDS011;4111;50.972;7.072;2022-11-20T11:09:32;16.90;;;13.73;;
8139;SDS011;4111;50.972;7.072;2022-11-20T11:12:06;16.13;;;13.73;;
8139;SDS011;4111;50.972;7.072;2022-11-20T11:14:44;17.20;;;14.00;;
8139;SDS011;4111;50.972;7.072;2022-11-20T11:17:34;17.70;;;14.67;;
8139;SDS011;4111;50.972;7.072;2022-11-20T11:22:33;17.53;;;14.17;;
8139;SDS011;4111;50.972;7.072;2022-11-20T11:25:09;17.70;;;13.77;;
8139;SDS011;4111;50.972;7.072;2022-11-20T11:27:49;16.27;;;13.63;;
8139;SDS011;4111;50.972;7.072;2022-11-20T11:30:17;17.40;;;14.40;;
8139;SDS011;4111;50.972;7.072;2022-11-20T11:32:46;18.80;;;15.47;;
8139;SDS011;4111;50.972;7.072;2022-11-20T11:35:26;20.23;;;14.63;;
8139;SDS011;4111;50.972;7.072;2022-11-20T11:38:00;16.47;;;14.27;;
8139;SDS011;4111;50.972;7.072;2022-11-20T11:40:33;15.27;;;13.13;;
8139;SDS011;4111;50.972;7.072;2022-11-20T11:43:05;16.80;;;14.10;;
8139;SDS011;4111;50.972;7.072;2022-11-20T11:45:54;17.60;;;14.10;;
8139;SDS011;4111;50.972;7.072;2022-11-20T11:48:21;19.40;;;14.13;;
8139;SDS011;4111;50.972;7.072;2022-11-20T11:50:49;17.37;;;13.17;;
8139;SDS011;4111;50.972;7.072;2022-11-20T11:53:17;17.20;;;13.93;;
8139;SDS011;4111;50.972;7.072;2022-11-20T11:56:02;16.83;;;13.20;;
8139;SDS011;4111;50.972;7.072;2022-11-20T11:58:45;16.57;;;12.47;;
8139;SDS011;4111;50.972;7.072;2022-11-20T12:01:31;16.50;;;13.67;;
8139;SDS011;4111;50.972;7.072;2022-11-20T12:06:37;17.27;;;14.10;;
8139;SDS011;4111;50.972;7.072;2022-11-20T12:09:09;19.57;;;13.90;;
8139;SDS011;4111;50.972;7.072;2022-11-20T12:11:45;16.70;;;14.00;;
8139;SDS011;4111;50.972;7.072;2022-11-20T12:14:20;17.77;;;13.73;;
8139;SDS011;4111;50.972;7.072;2022-11-20T12:16:54;17.50;;;14.20;;
8139;SDS011;4111;50.972;7.072;2022-11-20T12:19:21;15.00;;;12.70;;
8139;SDS011;4111;50.972;7.072;2022-11-20T12:24:52;14.80;;;13.17;;
8139;SDS011;4111;50.972;7.072;2022-11-20T12:30:11;15.77;;;13.20;;
8139;SDS011;4111;50.972;7.072;2022-11-20T12:35:29;18.67;;;14.77;;
8139;SDS011;4111;50.972;7.072;2022-11-20T12:44:08;22.73;;;18.07;;
8139;SDS011;4111;50.972;7.072;2022-11-20T12:47:13;23.27;;;16.23;;
8139;SDS011;4111;50.972;7.072;2022-11-20T12:50:04;16.47;;;13.33;;
8139;SDS011;4111;50.972;7.072;2022-11-20T12:58:20;17.43;;;14.43;;
8139;SDS011;4111;50.972;7.072;2022-11-20T13:01:00;19.27;;;15.07;;
8139;SDS011;4111;50.972;7.072;2022-11-20T13:03:45;19.60;;;15.07;;
8139;SDS011;4111;50.972;7.072;2022-11-20T13:06:18;17.83;;;14.47;;
8139;SDS011;4111;50.972;7.072;2022-11-20T13:08:53;17.33;;;13.60;;
8139;SDS011;4111;50.972;7.072;2022-11-20T13:11:37;17.87;;;14.47;;
8139;SDS011;4111;50.972;7.072;2022-11-20T13:17:11;17.83;;;14.23;;
8139;SDS011;4111;50.972;7.072;2022-11-20T13:19:40;17.77;;;13.67;;
8139;SDS011;4111;50.972;7.072;2022-11-20T13:22:08;16.80;;;13.60;;
8139;SDS011;4111;50.972;7.072;2022-11-20T13:24:35;16.20;;;13.60;;
8139;SDS011;4111;50.972;7.072;2022-11-20T13:29:30;15.50;;;13.43;;
8139;SDS011;4111;50.972;7.072;2022-11-20T13:34:33;17.70;;;13.63;;
8139;SDS011;4111;50.972;7.072;2022-11-20T13:37:02;19.83;;;14.30;;
8139;SDS011;4111;50.972;7.072;2022-11-20T13:39:35;16.27;;;13.40;;
8139;SDS011;4111;50.972;7.072;2022-11-20T13:42:20;18.23;;;13.37;;
8139;SDS011;4111;50.972;7.072;2022-11-20T13:44:53;17.33;;;12.90;;
8139;SDS011;4111;50.972;7.072;2022-11-20T13:49:51;15.87;;;13.30;;
8139;SDS011;4111;50.972;7.072;2022-11-20T13:55:16;16.60;;;13.03;;
8139;SDS011;4111;50.972;7.072;2022-11-20T14:00:24;17.00;;;14.07;;
8139;SDS011;4111;50.972;7.072;2022-11-20T14:03:02;17.20;;;13.83;;
8139;SDS011;4111;50.972;7.072;2022-11-20T14:05:39;16.83;;;13.87;;
8139;SDS011;4111;50.972;7.072;2022-11-20T14:08:17;17.07;;;13.27;;
8139;SDS011;4111;50.972;7.072;2022-11-20T14:10:51;17.60;;;15.17;;
8139;SDS011;4111;50.972;7.072;2022-11-20T14:13:28;20.20;;;15.20;;
8139;SDS011;4111;50.972;7.072;2022-11-20T14:15:58;17.37;;;13.97;;
8139;SDS011;4111;50.972;7.072;2022-11-20T14:18:25;16.10;;;13.80;;
8139;SDS011;4111;50.972;7.072;2022-11-20T14:20:52;17.27;;;14.00;;
8139;SDS011;4111;50.972;7.072;2022-11-20T14:23:28;16.27;;;13.03;;
8139;SDS011;4111;50.972;7.072;2022-11-20T14:25:55;14.80;;;12.53;;
8139;SDS011;4111;50.972;7.072;2022-11-20T14:30:53;16.63;;;12.37;;
8139;SDS011;4111;50.972;7.072;2022-11-20T14:33:21;14.37;;;12.00;;
8139;SDS011;4111;50.972;7.072;2022-11-20T14:35:54;13.13;;;11.60;;
8139;SDS011;4111;50.972;7.072;2022-11-20T14:38:28;14.63;;;13.03;;
8139;SDS011;4111;50.972;7.072;2022-11-20T14:41:08;13.87;;;12.37;;
8139;SDS011;4111;50.972;7.072;2022-11-20T14:43:35;14.87;;;12.73;;
8139;SDS011;4111;50.972;7.072;2022-11-20T14:46:04;15.07;;;12.37;;
8139;SDS011;4111;50.972;7.072;2022-11-20T14:48:39;15.13;;;12.53;;
8139;SDS011;4111;50.972;7.072;2022-11-20T14:51:57;13.93;;;12.43;;
8139;SDS011;4111;50.972;7.072;2022-11-20T14:54:25;15.60;;;12.57;;
8139;SDS011;4111;50.972;7.072;2022-11-20T14:56:53;16.53;;;12.53;;
8139;SDS011;4111;50.972;7.072;2022-11-20T14:59:23;14.50;;;11.90;;
8139;SDS011;4111;50.972;7.072;2022-11-20T15:01:57;16.87;;;12.80;;
8139;SDS011;4111;50.972;7.072;2022-11-20T15:07:23;16.53;;;12.03;;
8139;SDS011;4111;50.972;7.072;2022-11-20T15:12:31;15.37;;;12.77;;
8139;SDS011;4111;50.972;7.072;2022-11-20T15:15:00;16.87;;;13.30;;
8139;SDS011;4111;50.972;7.072;2022-11-20T15:17:29;15.60;;;12.73;;
8139;SDS011;4111;50.972;7.072;2022-11-20T15:19:58;17.10;;;13.00;;
8139;SDS011;4111;50.972;7.072;2022-11-20T15:22:25;15.33;;;12.83;;
8139;SDS011;4111;50.972;7.072;2022-11-20T15:24:52;15.30;;;13.10;;
8139;SDS011;4111;50.972;7.072;2022-11-20T15:27:18;13.50;;;12.10;;
8139;SDS011;4111;50.972;7.072;2022-11-20T15:29:45;18.13;;;13.47;;
8139;SDS011;4111;50.972;7.072;2022-11-20T15:32:11;17.30;;;13.50;;
8139;SDS011;4111;50.972;7.072;2022-11-20T15:34:39;15.10;;;13.07;;
8139;SDS011;4111;50.972;7.072;2022-11-20T15:37:05;16.97;;;12.93;;
8139;SDS011;4111;50.972;7.072;2022-11-20T15:39:32;16.10;;;13.40;;
8139;SDS011;4111;50.972;7.072;2022-11-20T15:41:58;17.37;;;12.83;;
8139;SDS011;4111;50.972;7.072;2022-11-20T15:44:24;17.23;;;12.90;;
8139;SDS011;4111;50.972;7.072;2022-11-20T15:46:51;15.53;;;12.70;;
8139;SDS011;4111;50.972;7.072;2022-11-20T15:49:17;15.90;;;12.63;;
8139;SDS011;4111;50.972;7.072;2022-11-20T15:51:49;15.30;;;11.97;;
8139;SDS011;4111;50.972;7.072;2022-11-20T15:54:17;16.90;;;13.50;;
8139;SDS011;4111;50.972;7.072;2022-11-20T15:56:47;15.80;;;12.43;;
8139;SDS011;4111;50.972;7.072;2022-11-20T15:59:15;15.93;;;12.73;;
8139;SDS011;4111;50.972;7.072;2022-11-20T16:01:41;16.43;;;12.73;;
8139;SDS011;4111;50.972;7.072;2022-11-20T16:04:12;21.90;;;12.77;;
8139;SDS011;4111;50.972;7.072;2022-11-20T16:06:40;16.80;;;12.10;;
8139;SDS011;4111;50.972;7.072;2022-11-20T16:09:07;20.47;;;13.50;;
8139;SDS011;4111;50.972;7.072;2022-11-20T16:11:34;17.53;;;12.40;;
8139;SDS011;4111;50.972;7.072;2022-11-20T16:14:04;17.97;;;11.90;;
8139;SDS011;4111;50.972;7.072;2022-11-20T16:16:50;16.17;;;12.17;;
8139;SDS011;4111;50.972;7.072;2022-11-20T16:19:17;17.93;;;12.20;;
8139;SDS011;4111;50.972;7.072;2022-11-20T16:21:44;21.60;;;14.17;;
8139;SDS011;4111;50.972;7.072;2022-11-20T16:24:11;20.43;;;15.37;;
8139;SDS011;4111;50.972;7.072;2022-11-20T16:26:39;16.43;;;13.20;;
8139;SDS011;4111;50.972;7.072;2022-11-20T16:29:06;18.60;;;13.10;;
8139;SDS011;4111;50.972;7.072;2022-11-20T16:31:33;16.80;;;12.20;;
8139;SDS011;4111;50.972;7.072;2022-11-20T16:34:01;17.70;;;11.20;;
8139;SDS011;4111;50.972;7.072;2022-11-20T16:36:38;17.30;;;11.53;;
8139;SDS011;4111;50.972;7.072;2022-11-20T16:39:06;19.17;;;11.60;;